sensor_id;sensor_type;location;lat;lon;timestamp;P1;durP1;ratioP1;P2;durP2;ratioP2
20181;SDS011;10250;50.756;6.172;2022-07-09T00:01:10;5.80;;;1.73;;
20181;SDS011;10250;50.756;6.172;2022-07-09T00:03:10;4.43;;;1.50;;
20181;SDS011;10250;50.756;6.172;2022-07-09T00:05:11;5.17;;;1.60;;
20181;SDS011;10250;50.756;6.172;2022-07-09T00:07:13;5.40;;;1.60;;
20181;SDS011;10250;50.756;6.172;2022-07-09T00:09:14;5.17;;;1.50;;
20181;SDS011;10250;50.756;6.172;2022-07-09T00:11:14;5.53;;;1.63;;
20181;SDS011;10250;50.756;6.172;2022-07-09T00:13:15;3.60;;;1.50;;
20181;SDS011;10250;50.756;6.172;2022-07-09T00:15:18;6.20;;;1.90;;
20181;SDS011;10250;50.756;6.172;2022-07-09T00:17:18;4.63;;;1.63;;
20181;SDS011;10250;50.756;6.172;2022-07-09T00:19:21;9.07;;;1.90;;
20181;SDS011;10250;50.756;6.172;2022-07-09T00:21:22;5.53;;;1.60;;
20181;SDS011;10250;50.756;6.172;2022-07-09T00:23:22;5.40;;;1.73;;
20181;SDS011;10250;50.756;6.172;2022-07-09T00:25:23;7.17;;;2.20;;
20181;SDS011;10250;50.756;6.172;2022-07-09T00:27:24;5.57;;;1.80;;
20181;SDS011;10250;50.756;6.172;2022-07-09T00:29:24;5.00;;;1.57;;
20181;SDS011;10250;50.756;6.172;2022-07-09T00:31:25;3.33;;;1.50;;
20181;SDS011;10250;50.756;6.172;2022-07-09T00:33:25;4.37;;;1.73;;
20181;SDS011;10250;50.756;6.172;2022-07-09T00:35:26;6.77;;;1.90;;
20181;SDS011;10250;50.756;6.172;2022-07-09T00:37:27;4.30;;;1.60;;
20181;SDS011;10250;50.756;6.172;2022-07-09T00:39:27;6.00;;;1.70;;
20181;SDS011;10250;50.756;6.172;2022-07-09T00:41:28;5.33;;;1.70;;
20181;SDS011;10250;50.756;6.172;2022-07-09T00:43:29;5.17;;;1.80;;
20181;SDS011;10250;50.756;6.172;2022-07-09T00:45:30;4.90;;;1.80;;
20181;SDS011;10250;50.756;6.172;2022-07-09T00:47:31;4.47;;;1.63;;
20181;SDS011;10250;50.756;6.172;2022-07-09T00:49:36;6.13;;;1.77;;
20181;SDS011;10250;50.756;6.172;2022-07-09T00:51:40;4.30;;;1.60;;
20181;SDS011;10250;50.756;6.172;2022-07-09T00:53:41;6.27;;;1.90;;
20181;SDS011;10250;50.756;6.172;2022-07-09T00:55:42;6.53;;;1.90;;
20181;SDS011;10250;50.756;6.172;2022-07-09T00:57:44;3.00;;;1.50;;
20181;SDS011;10250;50.756;6.172;2022-07-09T00:59:45;5.37;;;1.60;;
20181;SDS011;10250;50.756;6.172;2022-07-09T01:01:46;4.87;;;1.70;;
20181;SDS011;10250;50.756;6.172;2022-07-09T01:03:46;5.70;;;1.73;;
20181;SDS011;10250;50.756;6.172;2022-07-09T01:05:48;4.00;;;1.70;;
20181;SDS011;10250;50.756;6.172;2022-07-09T01:07:49;3.90;;;1.40;;
20181;SDS011;10250;50.756;6.172;2022-07-09T01:09:50;7.03;;;1.77;;
20181;SDS011;10250;50.756;6.172;2022-07-09T01:11:51;4.23;;;1.50;;
20181;SDS011;10250;50.756;6.172;2022-07-09T01:13:52;4.40;;;1.53;;
20181;SDS011;10250;50.756;6.172;2022-07-09T01:15:53;5.60;;;1.90;;
20181;SDS011;10250;50.756;6.172;2022-07-09T01:17:53;5.23;;;1.77;;
20181;SDS011;10250;50.756;6.172;2022-07-09T01:19:55;4.73;;;1.70;;
20181;SDS011;10250;50.756;6.172;2022-07-09T01:21:56;6.00;;;1.60;;
20181;SDS011;10250;50.756;6.172;2022-07-09T01:23:57;3.70;;;1.70;;
20181;SDS011;10250;50.756;6.172;2022-07-09T01:25:58;3.97;;;1.53;;
20181;SDS011;10250;50.756;6.172;2022-07-09T01:27:59;3.80;;;1.63;;
20181;SDS011;10250;50.756;6.172;2022-07-09T01:29:59;3.20;;;1.50;;
20181;SDS011;10250;50.756;6.172;2022-07-09T01:32:00;5.63;;;2.00;;
20181;SDS011;10250;50.756;6.172;2022-07-09T01:34:01;4.57;;;1.60;;
20181;SDS011;10250;50.756;6.172;2022-07-09T01:36:01;5.27;;;1.67;;
20181;SDS011;10250;50.756;6.172;2022-07-09T01:38:02;5.70;;;1.60;;
20181;SDS011;10250;50.756;6.172;2022-07-09T01:40:03;4.77;;;1.60;;
20181;SDS011;10250;50.756;6.172;2022-07-09T01:42:04;6.07;;;1.70;;
20181;SDS011;10250;50.756;6.172;2022-07-09T01:44:05;5.07;;;1.63;;
20181;SDS011;10250;50.756;6.172;2022-07-09T01:46:06;4.27;;;1.57;;
20181;SDS011;10250;50.756;6.172;2022-07-09T01:48:07;3.73;;;1.47;;
20181;SDS011;10250;50.756;6.172;2022-07-09T01:50:08;4.27;;;1.70;;
20181;SDS011;10250;50.756;6.172;2022-07-09T01:52:10;6.27;;;1.80;;
20181;SDS011;10250;50.756;6.172;2022-07-09T01:54:15;4.77;;;1.60;;
20181;SDS011;10250;50.756;6.172;2022-07-09T01:56:18;4.10;;;1.40;;
20181;SDS011;10250;50.756;6.172;2022-07-09T01:58:18;6.40;;;1.80;;
20181;SDS011;10250;50.756;6.172;2022-07-09T02:00:19;5.80;;;1.80;;
20181;SDS011;10250;50.756;6.172;2022-07-09T02:02:20;4.87;;;1.60;;
20181;SDS011;10250;50.756;6.172;2022-07-09T02:04:21;7.53;;;2.00;;
20181;SDS011;10250;50.756;6.172;2022-07-09T02:06:21;6.10;;;2.07;;
20181;SDS011;10250;50.756;6.172;2022-07-09T02:08:22;4.93;;;1.70;;
20181;SDS011;10250;50.756;6.172;2022-07-09T02:10:23;4.67;;;1.60;;
20181;SDS011;10250;50.756;6.172;2022-07-09T02:12:24;8.93;;;2.17;;
20181;SDS011;10250;50.756;6.172;2022-07-09T02:14:24;4.23;;;1.70;;
20181;SDS011;10250;50.756;6.172;2022-07-09T02:16:25;6.97;;;1.90;;
20181;SDS011;10250;50.756;6.172;2022-07-09T02:18:25;4.37;;;1.60;;
20181;SDS011;10250;50.756;6.172;2022-07-09T02:20:26;5.27;;;1.60;;
20181;SDS011;10250;50.756;6.172;2022-07-09T02:22:27;5.27;;;1.60;;
20181;SDS011;10250;50.756;6.172;2022-07-09T02:24:27;6.00;;;1.80;;
20181;SDS011;10250;50.756;6.172;2022-07-09T02:26:28;6.20;;;1.60;;
20181;SDS011;10250;50.756;6.172;2022-07-09T02:28:29;8.00;;;2.10;;
20181;SDS011;10250;50.756;6.172;2022-07-09T02:30:30;4.90;;;1.70;;
20181;SDS011;10250;50.756;6.172;2022-07-09T02:32:30;4.87;;;1.90;;
20181;SDS011;10250;50.756;6.172;2022-07-09T02:34:31;6.77;;;2.07;;
20181;SDS011;10250;50.756;6.172;2022-07-09T02:36:31;4.67;;;1.70;;
20181;SDS011;10250;50.756;6.172;2022-07-09T02:38:32;6.90;;;1.80;;
20181;SDS011;10250;50.756;6.172;2022-07-09T02:40:33;5.30;;;1.60;;
20181;SDS011;10250;50.756;6.172;2022-07-09T02:42:33;5.80;;;1.80;;
20181;SDS011;10250;50.756;6.172;2022-07-09T02:44:35;5.27;;;1.70;;
20181;SDS011;10250;50.756;6.172;2022-07-09T02:46:36;4.50;;;1.60;;
20181;SDS011;10250;50.756;6.172;2022-07-09T02:48:37;7.43;;;1.97;;
20181;SDS011;10250;50.756;6.172;2022-07-09T02:50:38;3.93;;;1.43;;
20181;SDS011;10250;50.756;6.172;2022-07-09T02:52:38;8.23;;;2.07;;
20181;SDS011;10250;50.756;6.172;2022-07-09T02:54:39;4.87;;;1.93;;
20181;SDS011;10250;50.756;6.172;2022-07-09T02:56:40;5.53;;;1.43;;
20181;SDS011;10250;50.756;6.172;2022-07-09T02:58:40;5.97;;;1.87;;
20181;SDS011;10250;50.756;6.172;2022-07-09T03:00:41;6.57;;;1.90;;
20181;SDS011;10250;50.756;6.172;2022-07-09T03:02:42;5.70;;;1.70;;
20181;SDS011;10250;50.756;6.172;2022-07-09T03:04:43;6.03;;;2.00;;
20181;SDS011;10250;50.756;6.172;2022-07-09T03:06:43;10.10;;;2.10;;
20181;SDS011;10250;50.756;6.172;2022-07-09T03:08:44;6.80;;;1.87;;
20181;SDS011;10250;50.756;6.172;2022-07-09T03:10:44;12.63;;;2.07;;
20181;SDS011;10250;50.756;6.172;2022-07-09T03:12:45;5.97;;;1.70;;
20181;SDS011;10250;50.756;6.172;2022-07-09T03:14:46;6.20;;;1.80;;
20181;SDS011;10250;50.756;6.172;2022-07-09T03:16:47;6.67;;;2.13;;
20181;SDS011;10250;50.756;6.172;2022-07-09T03:18:47;6.43;;;1.90;;
20181;SDS011;10250;50.756;6.172;2022-07-09T03:20:48;5.27;;;1.80;;
20181;SDS011;10250;50.756;6.172;2022-07-09T03:22:48;6.13;;;1.70;;
20181;SDS011;10250;50.756;6.172;2022-07-09T03:24:49;6.30;;;1.70;;
20181;SDS011;10250;50.756;6.172;2022-07-09T03:26:51;5.33;;;1.80;;
20181;SDS011;10250;50.756;6.172;2022-07-09T03:28:51;6.10;;;1.87;;
20181;SDS011;10250;50.756;6.172;2022-07-09T03:30:52;7.43;;;1.97;;
20181;SDS011;10250;50.756;6.172;2022-07-09T03:32:52;6.03;;;1.80;;
20181;SDS011;10250;50.756;6.172;2022-07-09T03:34:53;7.27;;;2.07;;
20181;SDS011;10250;50.756;6.172;2022-07-09T03:36:54;4.90;;;1.63;;
20181;SDS011;10250;50.756;6.172;2022-07-09T03:38:55;6.57;;;1.73;;
20181;SDS011;10250;50.756;6.172;2022-07-09T03:40:55;5.27;;;1.77;;
20181;SDS011;10250;50.756;6.172;2022-07-09T03:42:56;4.47;;;1.70;;
20181;SDS011;10250;50.756;6.172;2022-07-09T03:44:57;6.07;;;1.90;;
20181;SDS011;10250;50.756;6.172;2022-07-09T03:46:57;4.70;;;1.70;;
20181;SDS011;10250;50.756;6.172;2022-07-09T03:48:58;6.83;;;2.00;;
20181;SDS011;10250;50.756;6.172;2022-07-09T03:50:59;5.57;;;1.70;;
20181;SDS011;10250;50.756;6.172;2022-07-09T03:53:00;6.07;;;2.00;;
20181;SDS011;10250;50.756;6.172;2022-07-09T03:55:00;6.40;;;1.80;;
20181;SDS011;10250;50.756;6.172;2022-07-09T03:57:01;8.37;;;2.30;;
20181;SDS011;10250;50.756;6.172;2022-07-09T03:59:02;5.80;;;1.83;;
20181;SDS011;10250;50.756;6.172;2022-07-09T04:01:02;7.30;;;2.00;;
20181;SDS011;10250;50.756;6.172;2022-07-09T04:03:03;5.93;;;1.77;;
20181;SDS011;10250;50.756;6.172;2022-07-09T04:05:04;5.90;;;1.90;;
20181;SDS011;10250;50.756;6.172;2022-07-09T04:07:05;7.67;;;2.03;;
20181;SDS011;10250;50.756;6.172;2022-07-09T04:09:06;7.00;;;1.93;;
20181;SDS011;10250;50.756;6.172;2022-07-09T04:11:06;5.37;;;1.87;;
20181;SDS011;10250;50.756;6.172;2022-07-09T04:13:07;6.90;;;2.10;;
20181;SDS011;10250;50.756;6.172;2022-07-09T04:15:07;7.37;;;2.00;;
20181;SDS011;10250;50.756;6.172;2022-07-09T04:17:08;5.73;;;1.93;;
20181;SDS011;10250;50.756;6.172;2022-07-09T04:19:09;5.77;;;2.10;;
20181;SDS011;10250;50.756;6.172;2022-07-09T04:21:10;7.97;;;2.00;;
20181;SDS011;10250;50.756;6.172;2022-07-09T04:23:10;9.53;;;2.17;;
20181;SDS011;10250;50.756;6.172;2022-07-09T04:25:11;7.77;;;2.37;;
20181;SDS011;10250;50.756;6.172;2022-07-09T04:27:12;6.83;;;2.20;;
20181;SDS011;10250;50.756;6.172;2022-07-09T04:29:12;7.43;;;2.27;;
20181;SDS011;10250;50.756;6.172;2022-07-09T04:31:13;5.63;;;1.97;;
20181;SDS011;10250;50.756;6.172;2022-07-09T04:33:15;4.90;;;1.80;;
20181;SDS011;10250;50.756;6.172;2022-07-09T04:35:16;8.33;;;2.23;;
20181;SDS011;10250;50.756;6.172;2022-07-09T04:37:17;7.87;;;2.43;;
20181;SDS011;10250;50.756;6.172;2022-07-09T04:39:17;11.90;;;2.40;;
20181;SDS011;10250;50.756;6.172;2022-07-09T04:41:18;7.93;;;2.20;;
20181;SDS011;10250;50.756;6.172;2022-07-09T04:43:19;7.23;;;2.30;;
20181;SDS011;10250;50.756;6.172;2022-07-09T04:45:19;5.63;;;2.00;;
20181;SDS011;10250;50.756;6.172;2022-07-09T04:47:20;7.97;;;2.30;;
20181;SDS011;10250;50.756;6.172;2022-07-09T04:49:21;7.07;;;2.17;;
20181;SDS011;10250;50.756;6.172;2022-07-09T04:51:24;7.47;;;2.30;;
20181;SDS011;10250;50.756;6.172;2022-07-09T04:53:24;8.00;;;2.50;;
20181;SDS011;10250;50.756;6.172;2022-07-09T04:55:25;8.43;;;2.40;;
20181;SDS011;10250;50.756;6.172;2022-07-09T04:57:26;7.43;;;2.37;;
20181;SDS011;10250;50.756;6.172;2022-07-09T04:59:26;8.37;;;2.43;;
20181;SDS011;10250;50.756;6.172;2022-07-09T05:01:27;9.57;;;2.20;;
20181;SDS011;10250;50.756;6.172;2022-07-09T05:03:29;7.93;;;2.47;;
20181;SDS011;10250;50.756;6.172;2022-07-09T05:05:31;6.83;;;2.47;;
20181;SDS011;10250;50.756;6.172;2022-07-09T05:07:32;12.03;;;2.80;;
20181;SDS011;10250;50.756;6.172;2022-07-09T05:09:33;7.07;;;2.30;;
20181;SDS011;10250;50.756;6.172;2022-07-09T05:11:34;7.97;;;2.30;;
20181;SDS011;10250;50.756;6.172;2022-07-09T05:13:34;8.80;;;2.50;;
20181;SDS011;10250;50.756;6.172;2022-07-09T05:15:35;8.03;;;2.43;;
20181;SDS011;10250;50.756;6.172;2022-07-09T05:17:36;7.27;;;2.30;;
20181;SDS011;10250;50.756;6.172;2022-07-09T05:19:40;6.00;;;2.27;;
20181;SDS011;10250;50.756;6.172;2022-07-09T05:21:41;9.40;;;2.80;;
20181;SDS011;10250;50.756;6.172;2022-07-09T05:23:42;7.40;;;2.30;;
20181;SDS011;10250;50.756;6.172;2022-07-09T05:25:43;9.23;;;2.43;;
20181;SDS011;10250;50.756;6.172;2022-07-09T05:27:43;7.60;;;2.43;;
20181;SDS011;10250;50.756;6.172;2022-07-09T05:29:45;10.43;;;2.37;;
20181;SDS011;10250;50.756;6.172;2022-07-09T05:31:46;6.87;;;2.30;;
20181;SDS011;10250;50.756;6.172;2022-07-09T05:33:46;7.73;;;2.57;;
20181;SDS011;10250;50.756;6.172;2022-07-09T05:35:47;7.87;;;2.47;;
20181;SDS011;10250;50.756;6.172;2022-07-09T05:37:48;9.00;;;2.50;;
20181;SDS011;10250;50.756;6.172;2022-07-09T05:39:48;9.27;;;2.70;;
20181;SDS011;10250;50.756;6.172;2022-07-09T05:41:49;6.37;;;2.20;;
20181;SDS011;10250;50.756;6.172;2022-07-09T05:43:50;11.07;;;2.53;;
20181;SDS011;10250;50.756;6.172;2022-07-09T05:45:51;9.40;;;2.37;;
20181;SDS011;10250;50.756;6.172;2022-07-09T05:47:52;9.47;;;2.70;;
20181;SDS011;10250;50.756;6.172;2022-07-09T05:49:53;7.40;;;2.37;;
20181;SDS011;10250;50.756;6.172;2022-07-09T05:51:53;9.10;;;2.60;;
20181;SDS011;10250;50.756;6.172;2022-07-09T05:53:54;9.30;;;2.67;;
20181;SDS011;10250;50.756;6.172;2022-07-09T05:55:55;7.97;;;2.63;;
20181;SDS011;10250;50.756;6.172;2022-07-09T05:57:55;9.20;;;2.67;;
20181;SDS011;10250;50.756;6.172;2022-07-09T05:59:57;9.57;;;2.60;;
20181;SDS011;10250;50.756;6.172;2022-07-09T06:01:57;8.63;;;2.60;;
20181;SDS011;10250;50.756;6.172;2022-07-09T06:03:58;8.90;;;2.50;;
20181;SDS011;10250;50.756;6.172;2022-07-09T06:05:59;8.37;;;2.40;;
20181;SDS011;10250;50.756;6.172;2022-07-09T06:07:59;8.10;;;2.67;;
20181;SDS011;10250;50.756;6.172;2022-07-09T06:10:00;7.60;;;2.50;;
20181;SDS011;10250;50.756;6.172;2022-07-09T06:12:01;8.77;;;2.77;;
20181;SDS011;10250;50.756;6.172;2022-07-09T06:14:01;11.20;;;2.73;;
20181;SDS011;10250;50.756;6.172;2022-07-09T06:16:02;8.30;;;2.40;;
20181;SDS011;10250;50.756;6.172;2022-07-09T06:18:03;9.07;;;2.60;;
20181;SDS011;10250;50.756;6.172;2022-07-09T06:20:05;9.77;;;2.70;;
20181;SDS011;10250;50.756;6.172;2022-07-09T06:22:07;9.23;;;2.53;;
20181;SDS011;10250;50.756;6.172;2022-07-09T06:24:07;9.70;;;2.50;;
20181;SDS011;10250;50.756;6.172;2022-07-09T06:26:08;7.77;;;2.40;;
20181;SDS011;10250;50.756;6.172;2022-07-09T06:28:09;10.77;;;2.60;;
20181;SDS011;10250;50.756;6.172;2022-07-09T06:30:10;9.43;;;2.77;;
20181;SDS011;10250;50.756;6.172;2022-07-09T06:32:10;10.83;;;2.80;;
20181;SDS011;10250;50.756;6.172;2022-07-09T06:34:11;8.20;;;2.60;;
20181;SDS011;10250;50.756;6.172;2022-07-09T06:36:12;7.53;;;2.33;;
20181;SDS011;10250;50.756;6.172;2022-07-09T06:38:12;8.03;;;2.30;;
20181;SDS011;10250;50.756;6.172;2022-07-09T06:40:13;5.30;;;1.73;;
20181;SDS011;10250;50.756;6.172;2022-07-09T06:42:14;4.80;;;1.67;;
20181;SDS011;10250;50.756;6.172;2022-07-09T06:44:16;6.57;;;2.00;;
20181;SDS011;10250;50.756;6.172;2022-07-09T06:46:16;5.53;;;2.00;;
20181;SDS011;10250;50.756;6.172;2022-07-09T06:48:17;5.63;;;1.87;;
20181;SDS011;10250;50.756;6.172;2022-07-09T06:50:18;5.87;;;1.83;;
20181;SDS011;10250;50.756;6.172;2022-07-09T06:52:19;3.90;;;1.60;;
20181;SDS011;10250;50.756;6.172;2022-07-09T06:54:20;5.00;;;1.70;;
20181;SDS011;10250;50.756;6.172;2022-07-09T06:56:20;5.80;;;1.60;;
20181;SDS011;10250;50.756;6.172;2022-07-09T06:58:22;5.90;;;1.70;;
20181;SDS011;10250;50.756;6.172;2022-07-09T07:00:23;5.50;;;1.70;;
20181;SDS011;10250;50.756;6.172;2022-07-09T07:02:24;6.83;;;2.00;;
20181;SDS011;10250;50.756;6.172;2022-07-09T07:04:24;6.37;;;1.73;;
20181;SDS011;10250;50.756;6.172;2022-07-09T07:06:25;4.23;;;1.70;;
20181;SDS011;10250;50.756;6.172;2022-07-09T07:08:25;3.87;;;1.30;;
20181;SDS011;10250;50.756;6.172;2022-07-09T07:10:26;3.63;;;1.40;;
20181;SDS011;10250;50.756;6.172;2022-07-09T07:12:26;4.30;;;1.60;;
20181;SDS011;10250;50.756;6.172;2022-07-09T07:14:27;2.70;;;1.20;;
20181;SDS011;10250;50.756;6.172;2022-07-09T07:16:28;2.57;;;1.10;;
20181;SDS011;10250;50.756;6.172;2022-07-09T07:18:28;1.27;;;0.87;;
20181;SDS011;10250;50.756;6.172;2022-07-09T07:20:29;3.40;;;0.90;;
20181;SDS011;10250;50.756;6.172;2022-07-09T07:22:30;2.93;;;1.13;;
20181;SDS011;10250;50.756;6.172;2022-07-09T07:24:30;2.60;;;1.03;;
20181;SDS011;10250;50.756;6.172;2022-07-09T07:26:31;4.53;;;1.30;;
20181;SDS011;10250;50.756;6.172;2022-07-09T07:28:32;2.07;;;1.00;;
20181;SDS011;10250;50.756;6.172;2022-07-09T07:30:33;4.60;;;1.40;;
20181;SDS011;10250;50.756;6.172;2022-07-09T07:32:35;2.73;;;1.00;;
20181;SDS011;10250;50.756;6.172;2022-07-09T07:34:35;2.87;;;1.10;;
20181;SDS011;10250;50.756;6.172;2022-07-09T07:36:36;3.60;;;1.10;;
20181;SDS011;10250;50.756;6.172;2022-07-09T07:38:37;3.70;;;1.20;;
20181;SDS011;10250;50.756;6.172;2022-07-09T07:40:37;4.33;;;1.50;;
20181;SDS011;10250;50.756;6.172;2022-07-09T07:42:38;5.27;;;1.47;;
20181;SDS011;10250;50.756;6.172;2022-07-09T07:44:38;4.47;;;1.30;;
20181;SDS011;10250;50.756;6.172;2022-07-09T07:46:39;2.90;;;1.30;;
20181;SDS011;10250;50.756;6.172;2022-07-09T07:48:40;6.70;;;1.77;;
20181;SDS011;10250;50.756;6.172;2022-07-09T07:50:43;7.23;;;1.97;;
20181;SDS011;10250;50.756;6.172;2022-07-09T07:52:43;3.27;;;1.43;;
20181;SDS011;10250;50.756;6.172;2022-07-09T07:54:44;5.33;;;1.53;;
20181;SDS011;10250;50.756;6.172;2022-07-09T07:56:45;4.10;;;1.40;;
20181;SDS011;10250;50.756;6.172;2022-07-09T07:58:45;6.60;;;1.60;;
20181;SDS011;10250;50.756;6.172;2022-07-09T08:00:46;4.23;;;1.50;;
20181;SDS011;10250;50.756;6.172;2022-07-09T08:02:46;6.07;;;1.90;;
20181;SDS011;10250;50.756;6.172;2022-07-09T08:04:47;6.50;;;1.70;;
20181;SDS011;10250;50.756;6.172;2022-07-09T08:06:48;5.33;;;1.73;;
20181;SDS011;10250;50.756;6.172;2022-07-09T08:08:48;3.47;;;1.50;;
20181;SDS011;10250;50.756;6.172;2022-07-09T08:10:49;4.30;;;1.47;;
20181;SDS011;10250;50.756;6.172;2022-07-09T08:12:50;4.50;;;1.57;;
20181;SDS011;10250;50.756;6.172;2022-07-09T08:14:50;3.97;;;1.40;;
20181;SDS011;10250;50.756;6.172;2022-07-09T08:16:51;5.47;;;1.67;;
20181;SDS011;10250;50.756;6.172;2022-07-09T08:18:51;7.20;;;1.70;;
20181;SDS011;10250;50.756;6.172;2022-07-09T08:20:52;2.87;;;1.40;;
20181;SDS011;10250;50.756;6.172;2022-07-09T08:22:52;8.30;;;1.60;;
20181;SDS011;10250;50.756;6.172;2022-07-09T08:24:53;5.37;;;1.70;;
20181;SDS011;10250;50.756;6.172;2022-07-09T08:26:54;7.63;;;1.97;;
20181;SDS011;10250;50.756;6.172;2022-07-09T08:28:54;5.43;;;1.90;;
20181;SDS011;10250;50.756;6.172;2022-07-09T08:30:55;5.20;;;1.83;;
20181;SDS011;10250;50.756;6.172;2022-07-09T08:32:56;4.90;;;1.63;;
20181;SDS011;10250;50.756;6.172;2022-07-09T08:34:56;6.67;;;1.63;;
20181;SDS011;10250;50.756;6.172;2022-07-09T08:36:57;5.70;;;1.60;;
20181;SDS011;10250;50.756;6.172;2022-07-09T08:38:57;5.70;;;1.70;;
20181;SDS011;10250;50.756;6.172;2022-07-09T08:40:59;4.87;;;1.53;;
20181;SDS011;10250;50.756;6.172;2022-07-09T08:43:01;7.37;;;1.80;;
20181;SDS011;10250;50.756;6.172;2022-07-09T08:45:05;4.47;;;1.50;;
20181;SDS011;10250;50.756;6.172;2022-07-09T08:47:12;5.30;;;1.53;;
20181;SDS011;10250;50.756;6.172;2022-07-09T08:49:14;3.63;;;1.47;;
20181;SDS011;10250;50.756;6.172;2022-07-09T08:51:17;2.77;;;1.30;;
20181;SDS011;10250;50.756;6.172;2022-07-09T08:53:19;3.87;;;1.37;;
20181;SDS011;10250;50.756;6.172;2022-07-09T08:55:19;2.80;;;1.10;;
20181;SDS011;10250;50.756;6.172;2022-07-09T08:57:21;2.57;;;0.90;;
20181;SDS011;10250;50.756;6.172;2022-07-09T08:59:21;2.90;;;1.20;;
20181;SDS011;10250;50.756;6.172;2022-07-09T09:01:22;4.33;;;1.33;;
20181;SDS011;10250;50.756;6.172;2022-07-09T09:03:25;4.90;;;1.47;;
20181;SDS011;10250;50.756;6.172;2022-07-09T09:05:26;4.07;;;1.30;;
20181;SDS011;10250;50.756;6.172;2022-07-09T09:07:28;2.40;;;1.20;;
20181;SDS011;10250;50.756;6.172;2022-07-09T09:09:28;3.33;;;1.40;;
20181;SDS011;10250;50.756;6.172;2022-07-09T09:11:35;3.73;;;1.40;;
20181;SDS011;10250;50.756;6.172;2022-07-09T09:13:37;5.83;;;1.40;;
20181;SDS011;10250;50.756;6.172;2022-07-09T09:15:40;4.80;;;1.60;;
20181;SDS011;10250;50.756;6.172;2022-07-09T09:17:44;3.47;;;1.37;;
20181;SDS011;10250;50.756;6.172;2022-07-09T09:19:45;4.07;;;1.40;;
20181;SDS011;10250;50.756;6.172;2022-07-09T09:21:49;5.43;;;1.57;;
20181;SDS011;10250;50.756;6.172;2022-07-09T09:23:54;4.50;;;1.40;;
20181;SDS011;10250;50.756;6.172;2022-07-09T09:25:55;5.73;;;1.50;;
20181;SDS011;10250;50.756;6.172;2022-07-09T09:28:08;4.07;;;1.57;;
20181;SDS011;10250;50.756;6.172;2022-07-09T09:30:09;3.17;;;0.97;;
20181;SDS011;10250;50.756;6.172;2022-07-09T09:32:10;2.33;;;1.00;;
20181;SDS011;10250;50.756;6.172;2022-07-09T09:34:12;4.80;;;1.00;;
20181;SDS011;10250;50.756;6.172;2022-07-09T09:38:35;5.87;;;1.20;;
20181;SDS011;10250;50.756;6.172;2022-07-09T09:40:36;2.10;;;1.00;;
20181;SDS011;10250;50.756;6.172;2022-07-09T09:42:41;2.60;;;0.90;;
20181;SDS011;10250;50.756;6.172;2022-07-09T09:44:42;2.07;;;0.93;;
20181;SDS011;10250;50.756;6.172;2022-07-09T09:46:44;3.17;;;1.20;;
20181;SDS011;10250;50.756;6.172;2022-07-09T09:48:46;2.73;;;1.00;;
20181;SDS011;10250;50.756;6.172;2022-07-09T09:50:48;2.60;;;1.10;;
20181;SDS011;10250;50.756;6.172;2022-07-09T09:52:52;3.83;;;1.10;;
20181;SDS011;10250;50.756;6.172;2022-07-09T09:54:57;1.70;;;0.80;;
20181;SDS011;10250;50.756;6.172;2022-07-09T09:56:59;2.03;;;0.87;;
20181;SDS011;10250;50.756;6.172;2022-07-09T09:59:02;3.53;;;1.00;;
20181;SDS011;10250;50.756;6.172;2022-07-09T10:01:03;1.67;;;1.00;;
20181;SDS011;10250;50.756;6.172;2022-07-09T10:03:04;1.43;;;0.90;;
20181;SDS011;10250;50.756;6.172;2022-07-09T10:05:06;3.80;;;1.10;;
20181;SDS011;10250;50.756;6.172;2022-07-09T10:07:07;1.97;;;1.00;;
20181;SDS011;10250;50.756;6.172;2022-07-09T10:09:10;2.90;;;1.00;;
20181;SDS011;10250;50.756;6.172;2022-07-09T10:11:12;1.87;;;0.90;;
20181;SDS011;10250;50.756;6.172;2022-07-09T10:13:22;2.40;;;0.93;;
20181;SDS011;10250;50.756;6.172;2022-07-09T10:15:23;3.00;;;1.10;;
20181;SDS011;10250;50.756;6.172;2022-07-09T10:17:26;2.13;;;1.00;;
20181;SDS011;10250;50.756;6.172;2022-07-09T10:19:28;2.70;;;1.00;;
20181;SDS011;10250;50.756;6.172;2022-07-09T10:21:40;3.60;;;1.30;;
20181;SDS011;10250;50.756;6.172;2022-07-09T10:23:48;1.90;;;1.10;;
20181;SDS011;10250;50.756;6.172;2022-07-09T10:25:51;4.10;;;1.20;;
20181;SDS011;10250;50.756;6.172;2022-07-09T10:27:57;2.93;;;1.27;;
20181;SDS011;10250;50.756;6.172;2022-07-09T10:29:59;5.23;;;1.47;;
20181;SDS011;10250;50.756;6.172;2022-07-09T10:32:00;4.50;;;1.43;;
20181;SDS011;10250;50.756;6.172;2022-07-09T10:34:06;3.07;;;1.20;;
20181;SDS011;10250;50.756;6.172;2022-07-09T10:36:10;4.97;;;1.60;;
20181;SDS011;10250;50.756;6.172;2022-07-09T10:38:14;4.50;;;1.33;;
20181;SDS011;10250;50.756;6.172;2022-07-09T10:42:20;4.77;;;1.30;;
20181;SDS011;10250;50.756;6.172;2022-07-09T10:44:27;2.57;;;1.23;;
20181;SDS011;10250;50.756;6.172;2022-07-09T10:46:35;5.53;;;1.40;;
20181;SDS011;10250;50.756;6.172;2022-07-09T10:48:37;4.87;;;1.47;;
20181;SDS011;10250;50.756;6.172;2022-07-09T10:50:39;5.00;;;1.57;;
20181;SDS011;10250;50.756;6.172;2022-07-09T10:52:41;3.13;;;1.30;;
20181;SDS011;10250;50.756;6.172;2022-07-09T10:54:45;4.70;;;1.57;;
20181;SDS011;10250;50.756;6.172;2022-07-09T10:56:46;5.23;;;1.67;;
20181;SDS011;10250;50.756;6.172;2022-07-09T10:58:47;4.30;;;1.47;;
20181;SDS011;10250;50.756;6.172;2022-07-09T11:00:58;5.23;;;1.50;;
20181;SDS011;10250;50.756;6.172;2022-07-09T11:03:04;7.07;;;1.97;;
20181;SDS011;10250;50.756;6.172;2022-07-09T11:05:05;4.63;;;1.63;;
20181;SDS011;10250;50.756;6.172;2022-07-09T11:07:06;5.40;;;1.87;;
20181;SDS011;10250;50.756;6.172;2022-07-09T11:09:13;3.97;;;1.60;;
20181;SDS011;10250;50.756;6.172;2022-07-09T11:11:21;6.20;;;1.80;;
20181;SDS011;10250;50.756;6.172;2022-07-09T11:13:23;3.40;;;1.43;;
20181;SDS011;10250;50.756;6.172;2022-07-09T11:15:25;4.27;;;1.70;;
20181;SDS011;10250;50.756;6.172;2022-07-09T11:17:27;6.13;;;1.80;;
20181;SDS011;10250;50.756;6.172;2022-07-09T11:19:29;5.43;;;1.70;;
20181;SDS011;10250;50.756;6.172;2022-07-09T11:21:32;4.13;;;1.57;;
20181;SDS011;10250;50.756;6.172;2022-07-09T11:23:33;4.97;;;1.50;;
20181;SDS011;10250;50.756;6.172;2022-07-09T11:25:33;5.37;;;1.70;;
20181;SDS011;10250;50.756;6.172;2022-07-09T11:27:38;4.90;;;1.43;;
20181;SDS011;10250;50.756;6.172;2022-07-09T11:29:40;4.37;;;1.57;;
20181;SDS011;10250;50.756;6.172;2022-07-09T11:31:47;5.47;;;1.70;;
20181;SDS011;10250;50.756;6.172;2022-07-09T11:33:51;4.23;;;1.40;;
20181;SDS011;10250;50.756;6.172;2022-07-09T11:36:10;5.20;;;1.77;;
20181;SDS011;10250;50.756;6.172;2022-07-09T11:38:11;4.70;;;1.70;;
20181;SDS011;10250;50.756;6.172;2022-07-09T11:40:15;5.43;;;1.60;;
20181;SDS011;10250;50.756;6.172;2022-07-09T11:42:17;3.83;;;1.43;;
20181;SDS011;10250;50.756;6.172;2022-07-09T11:46:22;5.70;;;1.80;;
20181;SDS011;10250;50.756;6.172;2022-07-09T11:48:23;11.03;;;2.30;;
20181;SDS011;10250;50.756;6.172;2022-07-09T11:50:24;6.20;;;1.93;;
20181;SDS011;10250;50.756;6.172;2022-07-09T11:52:27;6.40;;;1.90;;
20181;SDS011;10250;50.756;6.172;2022-07-09T11:54:28;5.43;;;1.90;;
20181;SDS011;10250;50.756;6.172;2022-07-09T11:56:42;7.80;;;2.23;;
20181;SDS011;10250;50.756;6.172;2022-07-09T11:58:51;6.80;;;1.90;;
20181;SDS011;10250;50.756;6.172;2022-07-09T12:00:52;5.40;;;1.83;;
20181;SDS011;10250;50.756;6.172;2022-07-09T12:02:54;5.23;;;2.17;;
20181;SDS011;10250;50.756;6.172;2022-07-09T12:04:55;5.27;;;1.87;;
20181;SDS011;10250;50.756;6.172;2022-07-09T12:06:57;4.57;;;1.80;;
20181;SDS011;10250;50.756;6.172;2022-07-09T12:08:58;6.93;;;2.00;;
20181;SDS011;10250;50.756;6.172;2022-07-09T12:11:04;6.60;;;2.00;;
20181;SDS011;10250;50.756;6.172;2022-07-09T12:13:05;6.30;;;2.20;;
20181;SDS011;10250;50.756;6.172;2022-07-09T12:15:09;6.33;;;2.00;;
20181;SDS011;10250;50.756;6.172;2022-07-09T12:17:17;5.50;;;2.00;;
20181;SDS011;10250;50.756;6.172;2022-07-09T12:19:26;6.57;;;2.10;;